Ransom, Kansas
Current Conditions -  °F | °C
As of 3:35 PM on Friday 19 Dec 2014 (Local Time) from KHYS Reporting Station
Clear Clear  
Wind Chill: 41°   Ceiling: Unl
Heat Index: 46°   Visibility: 10mi
Dew Point: 30°   Wind: 12mph
Humidity: 53%   Direction: 200°SSW
Pressure: 30.09"   Gusts: NA
Location:  38.64°N, 99.93°W
Report Text: KHYS 192135Z AUTO 20010KT 10SM CLR 08/M01 A3009 RMK AO1
Loading
Personal Weather Stations






























Interactive Weather Map New forecast layout! Learn more

10-Day Weather Forecast

Advertisements
Track Severe Weather on mobile